Goodland, KS

9:46 AM MST on February 28, 2015 (GMT -0700)
Renner-Goodland Municipal | Change Station
CLOSE
Current Station
Airport
Location: Goodland,
Elevation: 3655 ft
Nearby Weather Stations

Elev 3655 ft 39.37 °N, 101.69 °W | Updated 5 minutes ago

Light Snow
Light Snow Mist
14 °F
Feels Like 0 °F
N
13
Wind Variable Wind from SSE

Today
High -- | Low -- °F
--% Chance of Precip.
Yesterday
High -- | Low -- °F
Precip. -- in
6:21 AM 5:37 PM
Waxing Gibbous, 78% visible
Pressure 30.12 in
Visibility 2.5 miles
Clouds Overcast 1500 ft
Windchill 0 °F
Dew Point 10 °F
Humidity 84%
Rainfall 0.00 in
Snow Depth Not available.
UV 1 out of 12
Pollen 1.30 out of 12
Air Quality Not available.
Flu Activity Not available.
SPECI KGLD 281641Z AUTO 16011KT 2 1/2SM -SN BR OVC015 M10/M12 A3012 RMK AO2 P0000 T11001122

More Conditions Fewer Conditions

Pressure 30.12 in
Visibility 2.5 miles
Clouds Overcast 1500 ft
Windchill 0 °F
Dew Point 10 °F
Humidity 84%
Rainfall 0.00 in
Snow Depth Not available.
UV 1 out of 12
Pollen 1.30 out of 12
Air Quality Not available.
Flu Activity Not available.
SPECI KGLD 281641Z AUTO 16011KT 2 1/2SM -SN BR OVC015 M10/M12 A3012 RMK AO2 P0000 T11001122

More Conditions Fewer Conditions

10-Day Weather Forecast

Almanac

Astronomy

Feb. 28, 2015 Rise Set
Actual Time
Civil Twilight
Nautical Twilight
Astronomical Twilight
Moon
Length of Visible Light
Length of Day
Tomorrow will be .
, % of the Moon is Illuminated

Today's Extremes

State Highs State Lows

Community

WunderPhotos

Upload Photos

1,801,081 photos uploaded!

WunderBlogs® & News

Nearby

Air Quality

  Air Quality AQ Index Pollutant
Not available.

Snow Depth

Station Depth Elevation

Earthquake Activity

City Distance Mag. Time & Date
Minimum magnitude displayed is 2.5.

Coastal Water Temperatures

Place Temperature

Nearby Weather Stations